Sorlandet — LDTY — position and weather

sailwx.info

Track history (hours):
 
Tides and Currents Weather Stations Pressure Air Temp Water Temp Dewpoint Dewpoint Depression Visibility Wind Speed Wind Dir Waves Ship Positions

Sorlandet (Norway)

Last reported at 2018-Sep-21 12:22 UTC. Time now 2018-Dec-10 23:47 UTC.
Position N 28°10' W 016°18'.
Warning: this ship's position is months out of date.

Length 64 m; draft 4.5 m.

Type: Sailing vessel. MMSI: 257165000.

Date/timePositionNaut miles runAvg speedWind from/ knotsBaromVisibWave heightAir tempDewpointWater temp
2018-Sep-21 12:22N 28°10' W 016°18'3 6.6
2018-Sep-21 11:52N 28°13' W 016°17'3 6.8
2018-Sep-21 11:30N 28°15' W 016°16'3 7.4
2018-Sep-21 11:03N 28°18' W 016°16'0 7.3
2018-Sep-21 11:00N 28°19' W 016°15'4 7.3
2018-Sep-21 10:30N 28°22' W 016°15'2 5.3
2018-Sep-21 10:03N 28°25' W 016°15'0 4.2
2018-Sep-21 10:00N 28°25' W 016°15'2 3.8
2018-Sep-21 09:30N 28°27' W 016°15'1 2.3
2018-Sep-21 09:03N 28°28' W 016°15'0 0.1
2018-Sep-21 09:00N 28°28' W 016°15'0 0.0
2018-Sep-21 08:30N 28°28' W 016°15'0 0.0
2018-Sep-21 08:03N 28°28' W 016°15'0 0.1
2018-Sep-21 08:00N 28°28' W 016°15'0 0.0
2018-Sep-21 07:30N 28°28' W 016°15'0 0.0
2018-Sep-21 07:03N 28°28' W 016°15'0 0.0
2018-Sep-21 06:57N 28°28' W 016°15'0 0.0
2018-Sep-21 06:30N 28°28' W 016°15'0 0.0
2018-Sep-21 06:03N 28°28' W 016°15'0 0.1
2018-Sep-21 06:00N 28°28' W 016°15'0 0.0
2018-Sep-21 05:30N 28°28' W 016°15'0 0.0
2018-Sep-21 05:03N 28°28' W 016°15'0 0.0
2018-Sep-21 05:00N 28°28' W 016°15'0 0.0
2018-Sep-21 04:30N 28°28' W 016°15'0 0.0
2018-Sep-21 04:03N 28°28' W 016°15'0 0.0
2018-Sep-21 04:00N 28°28' W 016°15'0 0.0
2018-Sep-21 03:30N 28°28' W 016°15'0 0.0
2018-Sep-21 03:03N 28°28' W 016°15'0 0.2
2018-Sep-21 03:00N 28°28' W 016°15'0 0.0
2018-Sep-21 02:30N 28°28' W 016°15'0 0.0
2018-Sep-21 02:03N 28°28' W 016°15'0 0.0
2018-Sep-21 02:00N 28°28' W 016°15'0 0.0
2018-Sep-21 01:30N 28°28' W 016°15'0 0.0
2018-Sep-21 01:03N 28°28' W 016°15'0 0.0
2018-Sep-21 01:00N 28°28' W 016°15'0 0.0
2018-Sep-21 00:30N 28°28' W 016°15'0 0.0
2018-Sep-21 00:03N 28°28' W 016°15'0 0.0
2018-Sep-21 00:00N 28°28' W 016°15'0 0.0
2018-Sep-20 23:30N 28°28' W 016°15'0 0.0
2018-Sep-20 23:03N 28°28' W 016°15'0 0.0
2018-Sep-20 23:00N 28°28' W 016°15'0 0.0
2018-Sep-20 22:30N 28°28' W 016°15'0 0.0
2018-Sep-20 22:03N 28°28' W 016°15'0 0.1
2018-Sep-20 22:00N 28°28' W 016°15'0 0.0
2018-Sep-20 21:30N 28°28' W 016°15'0 0.0
2018-Sep-20 21:03N 28°28' W 016°15'0 0.0
2018-Sep-20 21:00N 28°28' W 016°15'0 0.0
2018-Sep-20 20:30N 28°28' W 016°15'0 0.0
2018-Sep-20 20:03N 28°28' W 016°15'0 0.0
2018-Sep-20 20:00N 28°28' W 016°15'0 0.0
2018-Sep-20 19:30N 28°28' W 016°15'0 0.0
2018-Sep-20 19:03N 28°28' W 016°15'0 0.0
2018-Sep-20 19:00N 28°28' W 016°15'0 0.0
2018-Sep-20 18:30N 28°28' W 016°15'0 0.0
2018-Sep-20 18:03N 28°28' W 016°15'0 0.0
2018-Sep-20 18:00N 28°28' W 016°15'0 0.0
2018-Sep-20 17:30N 28°28' W 016°15'0 0.0
2018-Sep-20 17:03N 28°28' W 016°15'0 0.0
2018-Sep-20 17:00N 28°28' W 016°15'0 0.0
2018-Sep-20 16:30N 28°28' W 016°15'0 0.0
2018-Sep-20 16:03N 28°28' W 016°15'0 0.0
2018-Sep-20 16:00N 28°28' W 016°15'0 0.0
2018-Sep-20 15:30N 28°28' W 016°15'0 0.0
2018-Sep-20 15:03N 28°28' W 016°15'0 0.0
2018-Sep-20 15:00N 28°28' W 016°15'0 0.0
2018-Sep-20 14:03N 28°28' W 016°15'0 0.0
2018-Sep-20 14:00N 28°28' W 016°15'0 0.0
2018-Sep-20 13:30N 28°28' W 016°15'0 0.0
2018-Sep-20 13:03N 28°28' W 016°15'0 0.0
2018-Sep-20 13:00N 28°28' W 016°15'0 0.0
2018-Sep-20 12:30N 28°28' W 016°15'0 0.0
2018-Sep-20 12:03N 28°28' W 016°15'0 0.0
2018-Sep-20 12:00N 28°28' W 016°15'0 0.0
2018-Sep-20 11:30N 28°28' W 016°15'0 0.0
2018-Sep-20 11:03N 28°28' W 016°15'0 0.0
2018-Sep-20 11:00N 28°28' W 016°15'0 0.0
2018-Sep-20 10:30N 28°28' W 016°15'0 0.0
2018-Sep-20 10:03N 28°28' W 016°15'0 0.0
2018-Sep-20 10:00N 28°28' W 016°15'0 0.0
2018-Sep-20 09:30N 28°28' W 016°15'0 0.0
2018-Sep-20 09:03N 28°28' W 016°15'0 0.0
2018-Sep-20 09:00N 28°28' W 016°15'0 0.0
2018-Sep-20 08:30N 28°28' W 016°15'0 0.0
2018-Sep-20 08:03N 28°28' W 016°15'0 0.1
2018-Sep-20 08:00N 28°28' W 016°15'0 0.0
2018-Sep-20 07:30N 28°28' W 016°15'0 0.0
2018-Sep-20 07:03N 28°28' W 016°15'0 0.1
2018-Sep-20 07:00N 28°28' W 016°15'0 0.0
2018-Sep-20 06:30N 28°28' W 016°15'0 0.0
2018-Sep-20 06:03N 28°28' W 016°15'0 0.1
2018-Sep-20 06:00N 28°28' W 016°15'0 0.0
2018-Sep-20 05:30N 28°28' W 016°15'0 0.0
2018-Sep-20 05:03N 28°28' W 016°15'0 0.2
2018-Sep-20 05:00N 28°28' W 016°15'0 0.0
2018-Sep-20 04:30N 28°28' W 016°15'0 0.0
2018-Sep-20 04:03N 28°28' W 016°15'0 0.0
2018-Sep-20 04:00N 28°28' W 016°15'0 0.0
2018-Sep-20 03:30N 28°28' W 016°15'0 0.0
2018-Sep-20 03:03N 28°28' W 016°15'0 0.0
2018-Sep-20 03:00N 28°28' W 016°15'0 0.0
2018-Sep-20 02:30N 28°28' W 016°15'0 0.0
2018-Sep-20 02:03N 28°28' W 016°15'0 0.0
2018-Sep-20 02:00N 28°28' W 016°15'0 0.0
2018-Sep-20 01:30N 28°28' W 016°15'0 0.0
2018-Sep-20 01:03N 28°28' W 016°15'0 0.0
2018-Sep-20 01:00N 28°28' W 016°15'0 0.0
2018-Sep-20 00:30N 28°28' W 016°15'0 0.0
2018-Sep-20 00:03N 28°28' W 016°15'0 0.0
2018-Sep-20 00:00N 28°28' W 016°15'0 0.0
2018-Sep-19 23:30N 28°28' W 016°15'0 0.0
2018-Sep-19 23:03N 28°28' W 016°15'0 0.1
2018-Sep-19 23:00N 28°28' W 016°15'0 0.0
2018-Sep-19 22:27N 28°28' W 016°15'0 0.0
2018-Sep-19 22:03N 28°28' W 016°15'0 0.2
2018-Sep-19 22:00N 28°28' W 016°15'0 0.0
2018-Sep-19 21:30N 28°28' W 016°15'0 0.0
2018-Sep-19 21:03N 28°28' W 016°15'0 0.1
2018-Sep-19 21:00N 28°28' W 016°15'0 0.0
2018-Sep-19 20:30N 28°28' W 016°15'0 0.0
2018-Sep-19 20:03N 28°28' W 016°15'0 0.0
2018-Sep-19 20:00N 28°28' W 016°15'0 0.0
2018-Sep-19 19:30N 28°28' W 016°15'0 0.0
2018-Sep-19 19:03N 28°28' W 016°15'0 0.0
2018-Sep-19 19:00N 28°28' W 016°15'0 0.0
2018-Sep-19 18:30N 28°28' W 016°15'0 0.0
2018-Sep-19 18:03N 28°28' W 016°15'0 0.0
2018-Sep-19 18:00N 28°28' W 016°15'0 0.0
2018-Sep-19 17:30N 28°28' W 016°15'0 0.0
2018-Sep-19 17:03N 28°28' W 016°15'0 0.0
2018-Sep-19 17:00N 28°28' W 016°15'0 0.0
2018-Sep-19 16:30N 28°28' W 016°15'0 0.0
2018-Sep-19 16:03N 28°28' W 016°15'0 0.0
2018-Sep-19 16:00N 28°28' W 016°15'0 0.0
2018-Sep-19 15:30N 28°28' W 016°15'0 0.0
2018-Sep-19 15:03N 28°28' W 016°15'0 0.0
2018-Sep-19 15:00N 28°28' W 016°15'0 0.0
2018-Sep-19 14:30N 28°28' W 016°15'0 0.0
2018-Sep-19 13:30N 28°28' W 016°15'0 0.0
2018-Sep-19 13:03N 28°28' W 016°15'0 0.0
2018-Sep-19 13:00N 28°28' W 016°15'0 0.0
2018-Sep-19 12:30N 28°28' W 016°15'0 0.0
2018-Sep-19 12:03N 28°28' W 016°15'0 0.0
2018-Sep-19 12:00N 28°28' W 016°15'0 0.0
2018-Sep-19 11:30N 28°28' W 016°15'0 0.0
2018-Sep-19 11:03N 28°28' W 016°15'0 0.0
2018-Sep-19 11:00N 28°28' W 016°15'0 0.0
2018-Sep-19 10:30N 28°28' W 016°15'0 0.0
2018-Sep-19 10:03N 28°28' W 016°15'0 0.1
2018-Sep-19 10:00N 28°28' W 016°15'0 0.0
2018-Sep-19 09:30N 28°28' W 016°15'0 0.0
2018-Sep-19 09:03N 28°28' W 016°15'0 0.0
2018-Sep-19 09:00N 28°28' W 016°15'0 0.0
2018-Sep-19 08:27N 28°28' W 016°15'0 0.0
2018-Sep-19 08:03N 28°28' W 016°15'0 0.1
2018-Sep-19 08:00N 28°28' W 016°15'0 0.0
2018-Sep-19 07:30N 28°28' W 016°15'0 0.0
2018-Sep-19 07:03N 28°28' W 016°15'0 0.0
2018-Sep-19 07:00N 28°28' W 016°15'0 0.0
2018-Sep-19 06:30N 28°28' W 016°15'0 0.0
2018-Sep-19 06:03N 28°28' W 016°15'0 0.1
2018-Sep-19 06:00N 28°28' W 016°15'0 0.0
2018-Sep-19 05:30N 28°28' W 016°15'0 0.0
2018-Sep-19 05:03N 28°28' W 016°15'0 0.0
2018-Sep-19 05:00N 28°28' W 016°15'0 0.0
2018-Sep-19 04:30N 28°28' W 016°15'0 0.0
2018-Sep-19 04:03N 28°28' W 016°15'0 0.0
2018-Sep-19 04:00N 28°28' W 016°15'0 0.0
2018-Sep-19 03:30N 28°28' W 016°15'0 0.0
2018-Sep-19 03:03N 28°28' W 016°15'0 0.1
2018-Sep-19 03:00N 28°28' W 016°15'0 0.0
2018-Sep-19 02:30N 28°28' W 016°15'0 0.0
2018-Sep-19 02:03N 28°28' W 016°15'0 0.0
2018-Sep-19 02:00N 28°28' W 016°15'0 0.0
2018-Sep-19 01:30N 28°28' W 016°15'0 0.0
2018-Sep-19 01:03N 28°28' W 016°15'0 0.0
2018-Sep-19 01:00N 28°28' W 016°15'0 0.0
2018-Sep-19 00:30N 28°28' W 016°15'0 0.0
2018-Sep-19 00:03N 28°28' W 016°15'0 0.0
2018-Sep-19 00:00N 28°28' W 016°15'0 0.0
2018-Sep-18 23:30N 28°28' W 016°15'0 0.0
2018-Sep-18 23:03N 28°28' W 016°15'0 0.1
2018-Sep-18 23:00N 28°28' W 016°15'0 0.0
2018-Sep-18 22:30N 28°28' W 016°15'0 0.0
2018-Sep-18 22:03N 28°28' W 016°15'0 0.0
2018-Sep-18 22:00N 28°28' W 016°15'0 0.0
2018-Sep-18 21:30N 28°28' W 016°15'0 0.0
2018-Sep-18 21:03N 28°28' W 016°15'0 0.0
2018-Sep-18 21:00N 28°28' W 016°15'0 0.0
2018-Sep-18 20:30N 28°28' W 016°15'0 0.0
2018-Sep-18 20:03N 28°28' W 016°15'0 0.0
2018-Sep-18 20:00N 28°28' W 016°15'0 0.0
2018-Sep-18 19:30N 28°28' W 016°15'0 0.0
2018-Sep-18 19:03N 28°28' W 016°15'0 0.0
2018-Sep-18 19:00N 28°28' W 016°15'0 0.0
2018-Sep-18 18:30N 28°28' W 016°15'0 0.0
2018-Sep-18 18:03N 28°28' W 016°15'0 0.0
2018-Sep-18 18:00N 28°28' W 016°15'0 0.0
2018-Sep-18 17:30N 28°28' W 016°15'0 0.0
2018-Sep-18 17:03N 28°28' W 016°15'0 0.0
2018-Sep-18 17:00N 28°28' W 016°15'0 0.0
2018-Sep-18 16:30N 28°28' W 016°15'0 0.0
2018-Sep-18 16:03N 28°28' W 016°15'0 0.0
2018-Sep-18 16:00N 28°28' W 016°15'0 0.0
2018-Sep-18 15:30N 28°28' W 016°15'0 0.0
2018-Sep-18 15:03N 28°28' W 016°15'0 0.0
2018-Sep-18 15:00N 28°28' W 016°15'0 0.0
2018-Sep-18 14:30N 28°28' W 016°15'0 0.0
2018-Sep-18 14:00N 28°28' W 016°15'0 0.0
2018-Sep-18 13:30N 28°28' W 016°15'0 0.0
2018-Sep-18 13:03N 28°28' W 016°15'0 0.0
2018-Sep-18 13:00N 28°28' W 016°15'0 0.0
2018-Sep-18 12:27N 28°28' W 016°15'0 0.0
2018-Sep-18 12:03N 28°28' W 016°15'0 0.0
2018-Sep-18 12:00N 28°28' W 016°15'0 0.0
2018-Sep-18 11:30N 28°28' W 016°15'0 0.0
2018-Sep-18 11:03N 28°28' W 016°15'0 0.1
2018-Sep-18 11:00N 28°28' W 016°15'0 0.0
2018-Sep-18 10:27N 28°28' W 016°15'0 0.0
2018-Sep-18 10:03N 28°28' W 016°15'0 0.1
2018-Sep-18 10:00N 28°28' W 016°15'0 0.0
2018-Sep-18 09:30N 28°28' W 016°15'0 0.0
2018-Sep-18 09:03N 28°28' W 016°15'0 0.0
2018-Sep-18 09:00N 28°28' W 016°15'0 0.0
2018-Sep-18 08:30N 28°28' W 016°15'0 0.0
2018-Sep-18 08:03N 28°28' W 016°15'0 0.0
2018-Sep-18 08:00N 28°28' W 016°15'0 0.0
2018-Sep-18 07:30N 28°28' W 016°15'0 0.0
2018-Sep-18 07:03N 28°28' W 016°15'0 0.1
2018-Sep-18 07:00N 28°28' W 016°15'0 0.0
2018-Sep-18 06:30N 28°28' W 016°15'0 0.0
2018-Sep-18 06:03N 28°28' W 016°15'0 0.0
2018-Sep-18 06:00N 28°28' W 016°15'0 0.0
2018-Sep-18 05:30N 28°28' W 016°15'0 0.0
2018-Sep-18 05:03N 28°28' W 016°15'0 0.0
2018-Sep-18 05:00N 28°28' W 016°15'0 0.0
2018-Sep-18 04:30N 28°28' W 016°15'0 0.0
2018-Sep-18 04:03N 28°28' W 016°15'0 0.0
2018-Sep-18 04:00N 28°28' W 016°15'0 0.0
2018-Sep-18 03:30N 28°28' W 016°15'0 0.0
2018-Sep-18 03:03N 28°28' W 016°15'0 0.1
2018-Sep-18 03:00N 28°28' W 016°15'0 0.0
2018-Sep-18 02:30N 28°28' W 016°15'0 0.0
2018-Sep-18 02:03N 28°28' W 016°15'0 0.1
2018-Sep-18 02:00N 28°28' W 016°15'0 0.0
2018-Sep-18 01:30N 28°28' W 016°15'0 0.0
2018-Sep-18 01:03N 28°28' W 016°15'0 0.0
2018-Sep-18 01:00N 28°28' W 016°15'0 0.0
2018-Sep-18 00:30N 28°28' W 016°15'0 0.0
2018-Sep-18 00:03N 28°28' W 016°15'0 0.0
2018-Sep-18 00:00N 28°28' W 016°15'0 0.0
2018-Sep-17 23:30N 28°28' W 016°15'0 0.0
2018-Sep-17 23:00N 28°28' W 016°15'0 0.0
2018-Sep-17 22:30N 28°28' W 016°15'0 0.0
2018-Sep-17 22:03N 28°28' W 016°15'0 0.0
2018-Sep-17 22:00N 28°28' W 016°15'0 0.0
2018-Sep-17 21:30N 28°28' W 016°15'0 0.0
2018-Sep-17 21:03N 28°28' W 016°15'0 0.0
2018-Sep-17 21:00N 28°28' W 016°15'0 0.0
2018-Sep-17 20:30N 28°28' W 016°15'0 0.0
2018-Sep-17 20:03N 28°28' W 016°15'0 0.0
2018-Sep-17 20:00N 28°28' W 016°15'0 0.0
2018-Sep-17 19:30N 28°28' W 016°15'0 0.0
2018-Sep-17 19:03N 28°28' W 016°15'0 0.0
2018-Sep-17 19:00N 28°28' W 016°15'0 0.0
2018-Sep-17 18:30N 28°28' W 016°15'0 0.0
2018-Sep-17 18:03N 28°28' W 016°15'0 0.0
2018-Sep-17 18:00N 28°28' W 016°15'0 0.0
2018-Sep-17 17:24N 28°28' W 016°15'0 0.0
2018-Sep-17 17:03N 28°28' W 016°15'0 0.0
2018-Sep-17 17:00N 28°28' W 016°15'0 0.0
2018-Sep-17 16:30N 28°28' W 016°15'0 0.0
2018-Sep-17 16:03N 28°28' W 016°15'0 0.1
2018-Sep-17 16:00N 28°28' W 016°15'0 0.0
2018-Sep-17 15:30N 28°28' W 016°15'0 0.0
2018-Sep-17 15:03N 28°28' W 016°15'0 0.0
2018-Sep-17 15:00N 28°28' W 016°15'0 0.0
2018-Sep-17 14:30N 28°28' W 016°15'0 0.0
2018-Sep-17 14:00N 28°28' W 016°15'0 0.0
2018-Sep-17 13:30N 28°28' W 016°15'0 0.0
2018-Sep-17 13:03N 28°28' W 016°15'0 0.0
2018-Sep-17 13:00N 28°28' W 016°15'0 0.1
2018-Sep-17 12:30N 28°28' W 016°15'1 1.5
2018-Sep-17 12:03N 28°27' W 016°14'0 5.5
2018-Sep-17 12:00N 28°27' W 016°14'4 7.4
2018-Sep-17 11:30N 28°30' W 016°11'0 1.0
2018-Sep-17 11:02N 28°30' W 016°11'0 0.0
2018-Sep-17 10:59N 28°30' W 016°11'0 0.0
2018-Sep-17 10:29N 28°30' W 016°11'0 0.0
2018-Sep-17 10:02N 28°30' W 016°11'0 0.1
2018-Sep-17 09:56N 28°30' W 016°11'0 0.0
2018-Sep-17 09:29N 28°30' W 016°11'0 0.0
2018-Sep-17 09:02N 28°30' W 016°11'0 0.1
2018-Sep-17 08:59N 28°30' W 016°11'0 0.0
2018-Sep-17 08:29N 28°30' W 016°11'0 0.0
2018-Sep-17 08:02N 28°30' W 016°11'0 0.1
2018-Sep-17 07:59N 28°30' W 016°11'0 0.1
2018-Sep-17 07:29N 28°30' W 016°11'0 0.0
2018-Sep-17 07:02N 28°30' W 016°11'0 0.1
2018-Sep-17 06:59N 28°30' W 016°11'0 0.0
2018-Sep-17 06:29N 28°30' W 016°11'0 0.1
2018-Sep-17 06:02N 28°30' W 016°11'0 0.2
2018-Sep-17 05:59N 28°30' W 016°11'0 0.1
2018-Sep-17 05:29N 28°30' W 016°11'0 0.0
2018-Sep-17 05:02N 28°30' W 016°11'0 0.1
2018-Sep-17 04:59N 28°30' W 016°11'0 0.0
2018-Sep-17 04:29N 28°30' W 016°11'0 0.0
2018-Sep-17 04:02N 28°30' W 016°11'0 0.0
2018-Sep-17 03:59N 28°30' W 016°11'0 0.0
2018-Sep-17 03:29N 28°30' W 016°11'0 0.0
2018-Sep-17 03:02N 28°30' W 016°11'0 0.1
2018-Sep-17 02:59N 28°30' W 016°11'0 0.0
2018-Sep-17 02:29N 28°30' W 016°11'0 0.0
2018-Sep-17 02:02N 28°30' W 016°11'0 0.2
2018-Sep-17 01:59N 28°30' W 016°11'0 0.0
2018-Sep-17 01:29N 28°30' W 016°11'0 0.0
2018-Sep-17 01:02N 28°30' W 016°11'0 0.1
2018-Sep-17 00:59N 28°30' W 016°11'0 0.0
2018-Sep-17 00:29N 28°30' W 016°11'0 0.0
2018-Sep-17 00:02N 28°30' W 016°11'0 0.1
2018-Sep-16 23:59N 28°30' W 016°11'0 0.0
2018-Sep-16 23:29N 28°30' W 016°11'0 0.0
2018-Sep-16 23:02N 28°30' W 016°11'0 0.1
2018-Sep-16 22:59N 28°30' W 016°11'0 0.0
2018-Sep-16 22:29N 28°30' W 016°11'0 0.0
2018-Sep-16 22:02N 28°30' W 016°11'0 0.1
2018-Sep-16 21:59N 28°30' W 016°11'0 0.0
2018-Sep-16 21:29N 28°30' W 016°11'0 0.0
2018-Sep-16 21:02N 28°30' W 016°11'0 0.0
2018-Sep-16 20:59N 28°30' W 016°11'0 0.0
2018-Sep-16 20:29N 28°30' W 016°11'0 0.0
2018-Sep-16 20:02N 28°30' W 016°11'0 0.2
2018-Sep-16 19:59N 28°30' W 016°11'0 0.0
2018-Sep-16 19:29N 28°30' W 016°11'1 2.0
2018-Sep-16 19:03N 28°30' W 016°10'0 6.2
2018-Sep-16 19:00N 28°30' W 016°10'3 3.2
2018-Sep-16 18:13N 28°32' W 016°08'0 0.0
2018-Sep-16 17:59N 28°32' W 016°08'0 0.0
2018-Sep-16 17:22N 28°32' W 016°08'0 0.1
2018-Sep-16 17:03N 28°32' W 016°08'0 0.1
2018-Sep-16 17:01N 28°32' W 016°08'0 0.1
2018-Sep-16 16:30N 28°32' W 016°08'0 0.2
2018-Sep-16 16:03N 28°32' W 016°08'0 1.1
2018-Sep-16 16:00N 28°32' W 016°08'1 2.8
2018-Sep-16 15:31N 28°32' W 016°06'1 2.5
2018-Sep-16 15:04N 28°33' W 016°06'0 4.7
2018-Sep-16 15:00N 28°33' W 016°06'5 4.7
2018-Sep-16 14:00N 28°38' W 016°04'3 5.1
2018-Sep-16 13:31N 28°40' W 016°04'  
2018-Sep-12 15:28N 35°52' W 015°45'5 5.4
2018-Sep-12 14:32N 35°57' W 015°45'64 4.8
2018-Sep-12 01:07N 36°32' W 014°39'1 6.3
2018-Sep-12 00:58N 36°33' W 014°38'46 7.0
2018-Sep-11 18:27N 36°56' W 013°49'20 7.1
2018-Sep-11 15:41N 37°06' W 013°27'15 7.8
2018-Sep-11 13:43N 37°14' W 013°11'2 8.6
2018-Sep-11 13:27N 37°15' W 013°09'  
Track history (hours):
 
Tides and Currents Weather Stations Pressure Air Temp Water Temp Dewpoint Dewpoint Depression Visibility Wind Speed Wind Dir Waves Ship Positions

Sorlandet (Norway)

Last reported at 2018-Sep-21 12:22 UTC. Time now 2018-Dec-10 23:47 UTC.
Position N 28°10' W 016°18'.
Warning: this ship's position is months out of date.

Length 64 m; draft 4.5 m.

Type: Sailing vessel. MMSI: 257165000.

Date/timePositionNaut miles runAvg speedWind from/ knotsBaromVisibWave heightAir tempDewpointWater temp
2018-Sep-21 12:22N 28°10' W 016°18'3 6.6
2018-Sep-21 11:52N 28°13' W 016°17'3 6.8
2018-Sep-21 11:30N 28°15' W 016°16'3 7.4
2018-Sep-21 11:03N 28°18' W 016°16'0 7.3
2018-Sep-21 11:00N 28°19' W 016°15'4 7.3
2018-Sep-21 10:30N 28°22' W 016°15'2 5.3
2018-Sep-21 10:03N 28°25' W 016°15'0 4.2
2018-Sep-21 10:00N 28°25' W 016°15'2 3.8
2018-Sep-21 09:30N 28°27' W 016°15'1 2.3
2018-Sep-21 09:03N 28°28' W 016°15'0 0.1
2018-Sep-21 09:00N 28°28' W 016°15'0 0.0
2018-Sep-21 08:30N 28°28' W 016°15'0 0.0
2018-Sep-21 08:03N 28°28' W 016°15'0 0.1
2018-Sep-21 08:00N 28°28' W 016°15'0 0.0
2018-Sep-21 07:30N 28°28' W 016°15'0 0.0
2018-Sep-21 07:03N 28°28' W 016°15'0 0.0
2018-Sep-21 06:57N 28°28' W 016°15'0 0.0
2018-Sep-21 06:30N 28°28' W 016°15'0 0.0
2018-Sep-21 06:03N 28°28' W 016°15'0 0.1
2018-Sep-21 06:00N 28°28' W 016°15'0 0.0
2018-Sep-21 05:30N 28°28' W 016°15'0 0.0
2018-Sep-21 05:03N 28°28' W 016°15'0 0.0
2018-Sep-21 05:00N 28°28' W 016°15'0 0.0
2018-Sep-21 04:30N 28°28' W 016°15'0 0.0
2018-Sep-21 04:03N 28°28' W 016°15'0 0.0
2018-Sep-21 04:00N 28°28' W 016°15'0 0.0
2018-Sep-21 03:30N 28°28' W 016°15'0 0.0
2018-Sep-21 03:03N 28°28' W 016°15'0 0.2
2018-Sep-21 03:00N 28°28' W 016°15'0 0.0
2018-Sep-21 02:30N 28°28' W 016°15'0 0.0
2018-Sep-21 02:03N 28°28' W 016°15'0 0.0
2018-Sep-21 02:00N 28°28' W 016°15'0 0.0
2018-Sep-21 01:30N 28°28' W 016°15'0 0.0
2018-Sep-21 01:03N 28°28' W 016°15'0 0.0
2018-Sep-21 01:00N 28°28' W 016°15'0 0.0
2018-Sep-21 00:30N 28°28' W 016°15'0 0.0
2018-Sep-21 00:03N 28°28' W 016°15'0 0.0
2018-Sep-21 00:00N 28°28' W 016°15'0 0.0
2018-Sep-20 23:30N 28°28' W 016°15'0 0.0
2018-Sep-20 23:03N 28°28' W 016°15'0 0.0
2018-Sep-20 23:00N 28°28' W 016°15'0 0.0
2018-Sep-20 22:30N 28°28' W 016°15'0 0.0
2018-Sep-20 22:03N 28°28' W 016°15'0 0.1
2018-Sep-20 22:00N 28°28' W 016°15'0 0.0
2018-Sep-20 21:30N 28°28' W 016°15'0 0.0
2018-Sep-20 21:03N 28°28' W 016°15'0 0.0
2018-Sep-20 21:00N 28°28' W 016°15'0 0.0
2018-Sep-20 20:30N 28°28' W 016°15'0 0.0
2018-Sep-20 20:03N 28°28' W 016°15'0 0.0
2018-Sep-20 20:00N 28°28' W 016°15'0 0.0
2018-Sep-20 19:30N 28°28' W 016°15'0 0.0
2018-Sep-20 19:03N 28°28' W 016°15'0 0.0
2018-Sep-20 19:00N 28°28' W 016°15'0 0.0
2018-Sep-20 18:30N 28°28' W 016°15'0 0.0
2018-Sep-20 18:03N 28°28' W 016°15'0 0.0
2018-Sep-20 18:00N 28°28' W 016°15'0 0.0
2018-Sep-20 17:30N 28°28' W 016°15'0 0.0
2018-Sep-20 17:03N 28°28' W 016°15'0 0.0
2018-Sep-20 17:00N 28°28' W 016°15'0 0.0
2018-Sep-20 16:30N 28°28' W 016°15'0 0.0
2018-Sep-20 16:03N 28°28' W 016°15'0 0.0
2018-Sep-20 16:00N 28°28' W 016°15'0 0.0
2018-Sep-20 15:30N 28°28' W 016°15'0 0.0
2018-Sep-20 15:03N 28°28' W 016°15'0 0.0
2018-Sep-20 15:00N 28°28' W 016°15'0 0.0
2018-Sep-20 14:03N 28°28' W 016°15'0 0.0
2018-Sep-20 14:00N 28°28' W 016°15'0 0.0
2018-Sep-20 13:30N 28°28' W 016°15'0 0.0
2018-Sep-20 13:03N 28°28' W 016°15'0 0.0
2018-Sep-20 13:00N 28°28' W 016°15'0 0.0
2018-Sep-20 12:30N 28°28' W 016°15'0 0.0
2018-Sep-20 12:03N 28°28' W 016°15'0 0.0
2018-Sep-20 12:00N 28°28' W 016°15'0 0.0
2018-Sep-20 11:30N 28°28' W 016°15'0 0.0
2018-Sep-20 11:03N 28°28' W 016°15'0 0.0
2018-Sep-20 11:00N 28°28' W 016°15'0 0.0
2018-Sep-20 10:30N 28°28' W 016°15'0 0.0
2018-Sep-20 10:03N 28°28' W 016°15'0 0.0
2018-Sep-20 10:00N 28°28' W 016°15'0 0.0
2018-Sep-20 09:30N 28°28' W 016°15'0 0.0
2018-Sep-20 09:03N 28°28' W 016°15'0 0.0
2018-Sep-20 09:00N 28°28' W 016°15'0 0.0
2018-Sep-20 08:30N 28°28' W 016°15'0 0.0
2018-Sep-20 08:03N 28°28' W 016°15'0 0.1
2018-Sep-20 08:00N 28°28' W 016°15'0 0.0
2018-Sep-20 07:30N 28°28' W 016°15'0 0.0
2018-Sep-20 07:03N 28°28' W 016°15'0 0.1
2018-Sep-20 07:00N 28°28' W 016°15'0 0.0
2018-Sep-20 06:30N 28°28' W 016°15'0 0.0
2018-Sep-20 06:03N 28°28' W 016°15'0 0.1
2018-Sep-20 06:00N 28°28' W 016°15'0 0.0
2018-Sep-20 05:30N 28°28' W 016°15'0 0.0
2018-Sep-20 05:03N 28°28' W 016°15'0 0.2
2018-Sep-20 05:00N 28°28' W 016°15'0 0.0
2018-Sep-20 04:30N 28°28' W 016°15'0 0.0
2018-Sep-20 04:03N 28°28' W 016°15'0 0.0
2018-Sep-20 04:00N 28°28' W 016°15'0 0.0
2018-Sep-20 03:30N 28°28' W 016°15'0 0.0
2018-Sep-20 03:03N 28°28' W 016°15'0 0.0
2018-Sep-20 03:00N 28°28' W 016°15'0 0.0
2018-Sep-20 02:30N 28°28' W 016°15'0 0.0
2018-Sep-20 02:03N 28°28' W 016°15'0 0.0
2018-Sep-20 02:00N 28°28' W 016°15'0 0.0
2018-Sep-20 01:30N 28°28' W 016°15'0 0.0
2018-Sep-20 01:03N 28°28' W 016°15'0 0.0
2018-Sep-20 01:00N 28°28' W 016°15'0 0.0
2018-Sep-20 00:30N 28°28' W 016°15'0 0.0
2018-Sep-20 00:03N 28°28' W 016°15'0 0.0
2018-Sep-20 00:00N 28°28' W 016°15'0 0.0
2018-Sep-19 23:30N 28°28' W 016°15'0 0.0
2018-Sep-19 23:03N 28°28' W 016°15'0 0.1
2018-Sep-19 23:00N 28°28' W 016°15'0 0.0
2018-Sep-19 22:27N 28°28' W 016°15'0 0.0
2018-Sep-19 22:03N 28°28' W 016°15'0 0.2
2018-Sep-19 22:00N 28°28' W 016°15'0 0.0
2018-Sep-19 21:30N 28°28' W 016°15'0 0.0
2018-Sep-19 21:03N 28°28' W 016°15'0 0.1
2018-Sep-19 21:00N 28°28' W 016°15'0 0.0
2018-Sep-19 20:30N 28°28' W 016°15'0 0.0
2018-Sep-19 20:03N 28°28' W 016°15'0 0.0
2018-Sep-19 20:00N 28°28' W 016°15'0 0.0
2018-Sep-19 19:30N 28°28' W 016°15'0 0.0
2018-Sep-19 19:03N 28°28' W 016°15'0 0.0
2018-Sep-19 19:00N 28°28' W 016°15'0 0.0
2018-Sep-19 18:30N 28°28' W 016°15'0 0.0
2018-Sep-19 18:03N 28°28' W 016°15'0 0.0
2018-Sep-19 18:00N 28°28' W 016°15'0 0.0
2018-Sep-19 17:30N 28°28' W 016°15'0 0.0
2018-Sep-19 17:03N 28°28' W 016°15'0 0.0
2018-Sep-19 17:00N 28°28' W 016°15'0 0.0
2018-Sep-19 16:30N 28°28' W 016°15'0 0.0
2018-Sep-19 16:03N 28°28' W 016°15'0 0.0
2018-Sep-19 16:00N 28°28' W 016°15'0 0.0
2018-Sep-19 15:30N 28°28' W 016°15'0 0.0
2018-Sep-19 15:03N 28°28' W 016°15'0 0.0
2018-Sep-19 15:00N 28°28' W 016°15'0 0.0
2018-Sep-19 14:30N 28°28' W 016°15'0 0.0
2018-Sep-19 13:30N 28°28' W 016°15'0 0.0
2018-Sep-19 13:03N 28°28' W 016°15'0 0.0
2018-Sep-19 13:00N 28°28' W 016°15'0 0.0
2018-Sep-19 12:30N 28°28' W 016°15'0 0.0
2018-Sep-19 12:03N 28°28' W 016°15'0 0.0
2018-Sep-19 12:00N 28°28' W 016°15'0 0.0
2018-Sep-19 11:30N 28°28' W 016°15'0 0.0
2018-Sep-19 11:03N 28°28' W 016°15'0 0.0
2018-Sep-19 11:00N 28°28' W 016°15'0 0.0
2018-Sep-19 10:30N 28°28' W 016°15'0 0.0
2018-Sep-19 10:03N 28°28' W 016°15'0 0.1
2018-Sep-19 10:00N 28°28' W 016°15'0 0.0
2018-Sep-19 09:30N 28°28' W 016°15'0 0.0
2018-Sep-19 09:03N 28°28' W 016°15'0 0.0
2018-Sep-19 09:00N 28°28' W 016°15'0 0.0
2018-Sep-19 08:27N 28°28' W 016°15'0 0.0
2018-Sep-19 08:03N 28°28' W 016°15'0 0.1
2018-Sep-19 08:00N 28°28' W 016°15'0 0.0
2018-Sep-19 07:30N 28°28' W 016°15'0 0.0
2018-Sep-19 07:03N 28°28' W 016°15'0 0.0
2018-Sep-19 07:00N 28°28' W 016°15'0 0.0
2018-Sep-19 06:30N 28°28' W 016°15'0 0.0
2018-Sep-19 06:03N 28°28' W 016°15'0 0.1
2018-Sep-19 06:00N 28°28' W 016°15'0 0.0
2018-Sep-19 05:30N 28°28' W 016°15'0 0.0
2018-Sep-19 05:03N 28°28' W 016°15'0 0.0
2018-Sep-19 05:00N 28°28' W 016°15'0 0.0
2018-Sep-19 04:30N 28°28' W 016°15'0 0.0
2018-Sep-19 04:03N 28°28' W 016°15'0 0.0
2018-Sep-19 04:00N 28°28' W 016°15'0 0.0
2018-Sep-19 03:30N 28°28' W 016°15'0 0.0
2018-Sep-19 03:03N 28°28' W 016°15'0 0.1
2018-Sep-19 03:00N 28°28' W 016°15'0 0.0
2018-Sep-19 02:30N 28°28' W 016°15'0 0.0
2018-Sep-19 02:03N 28°28' W 016°15'0 0.0
2018-Sep-19 02:00N 28°28' W 016°15'0 0.0
2018-Sep-19 01:30N 28°28' W 016°15'0 0.0
2018-Sep-19 01:03N 28°28' W 016°15'0 0.0
2018-Sep-19 01:00N 28°28' W 016°15'0 0.0
2018-Sep-19 00:30N 28°28' W 016°15'0 0.0
2018-Sep-19 00:03N 28°28' W 016°15'0 0.0
2018-Sep-19 00:00N 28°28' W 016°15'0 0.0
2018-Sep-18 23:30N 28°28' W 016°15'0 0.0
2018-Sep-18 23:03N 28°28' W 016°15'0 0.1
2018-Sep-18 23:00N 28°28' W 016°15'0 0.0
2018-Sep-18 22:30N 28°28' W 016°15'0 0.0
2018-Sep-18 22:03N 28°28' W 016°15'0 0.0
2018-Sep-18 22:00N 28°28' W 016°15'0 0.0
2018-Sep-18 21:30N 28°28' W 016°15'0 0.0
2018-Sep-18 21:03N 28°28' W 016°15'0 0.0
2018-Sep-18 21:00N 28°28' W 016°15'0 0.0
2018-Sep-18 20:30N 28°28' W 016°15'0 0.0
2018-Sep-18 20:03N 28°28' W 016°15'0 0.0
2018-Sep-18 20:00N 28°28' W 016°15'0 0.0
2018-Sep-18 19:30N 28°28' W 016°15'0 0.0
2018-Sep-18 19:03N 28°28' W 016°15'0 0.0
2018-Sep-18 19:00N 28°28' W 016°15'0 0.0
2018-Sep-18 18:30N 28°28' W 016°15'0 0.0
2018-Sep-18 18:03N 28°28' W 016°15'0 0.0
2018-Sep-18 18:00N 28°28' W 016°15'0 0.0
2018-Sep-18 17:30N 28°28' W 016°15'0 0.0
2018-Sep-18 17:03N 28°28' W 016°15'0 0.0
2018-Sep-18 17:00N 28°28' W 016°15'0 0.0
2018-Sep-18 16:30N 28°28' W 016°15'0 0.0
2018-Sep-18 16:03N 28°28' W 016°15'0 0.0
2018-Sep-18 16:00N 28°28' W 016°15'0 0.0
2018-Sep-18 15:30N 28°28' W 016°15'0 0.0
2018-Sep-18 15:03N 28°28' W 016°15'0 0.0
2018-Sep-18 15:00N 28°28' W 016°15'0 0.0
2018-Sep-18 14:30N 28°28' W 016°15'0 0.0
2018-Sep-18 14:00N 28°28' W 016°15'0 0.0
2018-Sep-18 13:30N 28°28' W 016°15'0 0.0
2018-Sep-18 13:03N 28°28' W 016°15'0 0.0
2018-Sep-18 13:00N 28°28' W 016°15'0 0.0
2018-Sep-18 12:27N 28°28' W 016°15'0 0.0
2018-Sep-18 12:03N 28°28' W 016°15'0 0.0
2018-Sep-18 12:00N 28°28' W 016°15'0 0.0
2018-Sep-18 11:30N 28°28' W 016°15'0 0.0
2018-Sep-18 11:03N 28°28' W 016°15'0 0.1
2018-Sep-18 11:00N 28°28' W 016°15'0 0.0
2018-Sep-18 10:27N 28°28' W 016°15'0 0.0
2018-Sep-18 10:03N 28°28' W 016°15'0 0.1
2018-Sep-18 10:00N 28°28' W 016°15'0 0.0
2018-Sep-18 09:30N 28°28' W 016°15'0 0.0
2018-Sep-18 09:03N 28°28' W 016°15'0 0.0
2018-Sep-18 09:00N 28°28' W 016°15'0 0.0
2018-Sep-18 08:30N 28°28' W 016°15'0 0.0
2018-Sep-18 08:03N 28°28' W 016°15'0 0.0
2018-Sep-18 08:00N 28°28' W 016°15'0 0.0
2018-Sep-18 07:30N 28°28' W 016°15'0 0.0
2018-Sep-18 07:03N 28°28' W 016°15'0 0.1
2018-Sep-18 07:00N 28°28' W 016°15'0 0.0
2018-Sep-18 06:30N 28°28' W 016°15'0 0.0
2018-Sep-18 06:03N 28°28' W 016°15'0 0.0
2018-Sep-18 06:00N 28°28' W 016°15'0 0.0
2018-Sep-18 05:30N 28°28' W 016°15'0 0.0
2018-Sep-18 05:03N 28°28' W 016°15'0 0.0
2018-Sep-18 05:00N 28°28' W 016°15'0 0.0
2018-Sep-18 04:30N 28°28' W 016°15'0 0.0
2018-Sep-18 04:03N 28°28' W 016°15'0 0.0
2018-Sep-18 04:00N 28°28' W 016°15'0 0.0
2018-Sep-18 03:30N 28°28' W 016°15'0 0.0
2018-Sep-18 03:03N 28°28' W 016°15'0 0.1
2018-Sep-18 03:00N 28°28' W 016°15'0 0.0
2018-Sep-18 02:30N 28°28' W 016°15'0 0.0
2018-Sep-18 02:03N 28°28' W 016°15'0 0.1
2018-Sep-18 02:00N 28°28' W 016°15'0 0.0
2018-Sep-18 01:30N 28°28' W 016°15'0 0.0
2018-Sep-18 01:03N 28°28' W 016°15'0 0.0
2018-Sep-18 01:00N 28°28' W 016°15'0 0.0
2018-Sep-18 00:30N 28°28' W 016°15'0 0.0
2018-Sep-18 00:03N 28°28' W 016°15'0 0.0
2018-Sep-18 00:00N 28°28' W 016°15'0 0.0
2018-Sep-17 23:30N 28°28' W 016°15'0 0.0
2018-Sep-17 23:00N 28°28' W 016°15'0 0.0
2018-Sep-17 22:30N 28°28' W 016°15'0 0.0
2018-Sep-17 22:03N 28°28' W 016°15'0 0.0
2018-Sep-17 22:00N 28°28' W 016°15'0 0.0
2018-Sep-17 21:30N 28°28' W 016°15'0 0.0
2018-Sep-17 21:03N 28°28' W 016°15'0 0.0
2018-Sep-17 21:00N 28°28' W 016°15'0 0.0
2018-Sep-17 20:30N 28°28' W 016°15'0 0.0
2018-Sep-17 20:03N 28°28' W 016°15'0 0.0
2018-Sep-17 20:00N 28°28' W 016°15'0 0.0
2018-Sep-17 19:30N 28°28' W 016°15'0 0.0
2018-Sep-17 19:03N 28°28' W 016°15'0 0.0
2018-Sep-17 19:00N 28°28' W 016°15'0 0.0
2018-Sep-17 18:30N 28°28' W 016°15'0 0.0
2018-Sep-17 18:03N 28°28' W 016°15'0 0.0
2018-Sep-17 18:00N 28°28' W 016°15'0 0.0
2018-Sep-17 17:24N 28°28' W 016°15'0 0.0
2018-Sep-17 17:03N 28°28' W 016°15'0 0.0
2018-Sep-17 17:00N 28°28' W 016°15'0 0.0
2018-Sep-17 16:30N 28°28' W 016°15'0 0.0
2018-Sep-17 16:03N 28°28' W 016°15'0 0.1
2018-Sep-17 16:00N 28°28' W 016°15'0 0.0
2018-Sep-17 15:30N 28°28' W 016°15'0 0.0
2018-Sep-17 15:03N 28°28' W 016°15'0 0.0
2018-Sep-17 15:00N 28°28' W 016°15'0 0.0
2018-Sep-17 14:30N 28°28' W 016°15'0 0.0
2018-Sep-17 14:00N 28°28' W 016°15'0 0.0
2018-Sep-17 13:30N 28°28' W 016°15'0 0.0
2018-Sep-17 13:03N 28°28' W 016°15'0 0.0
2018-Sep-17 13:00N 28°28' W 016°15'0 0.1
2018-Sep-17 12:30N 28°28' W 016°15'1 1.5
2018-Sep-17 12:03N 28°27' W 016°14'0 5.5
2018-Sep-17 12:00N 28°27' W 016°14'4 7.4
2018-Sep-17 11:30N 28°30' W 016°11'0 1.0
2018-Sep-17 11:02N 28°30' W 016°11'0 0.0
2018-Sep-17 10:59N 28°30' W 016°11'0 0.0
2018-Sep-17 10:29N 28°30' W 016°11'0 0.0
2018-Sep-17 10:02N 28°30' W 016°11'0 0.1
2018-Sep-17 09:56N 28°30' W 016°11'0 0.0
2018-Sep-17 09:29N 28°30' W 016°11'0 0.0
2018-Sep-17 09:02N 28°30' W 016°11'0 0.1
2018-Sep-17 08:59N 28°30' W 016°11'0 0.0
2018-Sep-17 08:29N 28°30' W 016°11'0 0.0
2018-Sep-17 08:02N 28°30' W 016°11'0 0.1
2018-Sep-17 07:59N 28°30' W 016°11'0 0.1
2018-Sep-17 07:29N 28°30' W 016°11'0 0.0
2018-Sep-17 07:02N 28°30' W 016°11'0 0.1
2018-Sep-17 06:59N 28°30' W 016°11'0 0.0
2018-Sep-17 06:29N 28°30' W 016°11'0 0.1
2018-Sep-17 06:02N 28°30' W 016°11'0 0.2
2018-Sep-17 05:59N 28°30' W 016°11'0 0.1
2018-Sep-17 05:29N 28°30' W 016°11'0 0.0
2018-Sep-17 05:02N 28°30' W 016°11'0 0.1
2018-Sep-17 04:59N 28°30' W 016°11'0 0.0
2018-Sep-17 04:29N 28°30' W 016°11'0 0.0
2018-Sep-17 04:02N 28°30' W 016°11'0 0.0
2018-Sep-17 03:59N 28°30' W 016°11'0 0.0
2018-Sep-17 03:29N 28°30' W 016°11'0 0.0
2018-Sep-17 03:02N 28°30' W 016°11'0 0.1
2018-Sep-17 02:59N 28°30' W 016°11'0 0.0
2018-Sep-17 02:29N 28°30' W 016°11'0 0.0
2018-Sep-17 02:02N 28°30' W 016°11'0 0.2
2018-Sep-17 01:59N 28°30' W 016°11'0 0.0
2018-Sep-17 01:29N 28°30' W 016°11'0 0.0
2018-Sep-17 01:02N 28°30' W 016°11'0 0.1
2018-Sep-17 00:59N 28°30' W 016°11'0 0.0
2018-Sep-17 00:29N 28°30' W 016°11'0 0.0
2018-Sep-17 00:02N 28°30' W 016°11'0 0.1
2018-Sep-16 23:59N 28°30' W 016°11'0 0.0
2018-Sep-16 23:29N 28°30' W 016°11'0 0.0
2018-Sep-16 23:02N 28°30' W 016°11'0 0.1
2018-Sep-16 22:59N 28°30' W 016°11'0 0.0
2018-Sep-16 22:29N 28°30' W 016°11'0 0.0
2018-Sep-16 22:02N 28°30' W 016°11'0 0.1
2018-Sep-16 21:59N 28°30' W 016°11'0 0.0
2018-Sep-16 21:29N 28°30' W 016°11'0 0.0
2018-Sep-16 21:02N 28°30' W 016°11'0 0.0
2018-Sep-16 20:59N 28°30' W 016°11'0 0.0
2018-Sep-16 20:29N 28°30' W 016°11'0 0.0
2018-Sep-16 20:02N 28°30' W 016°11'0 0.2
2018-Sep-16 19:59N 28°30' W 016°11'0 0.0
2018-Sep-16 19:29N 28°30' W 016°11'1 2.0
2018-Sep-16 19:03N 28°30' W 016°10'0 6.2
2018-Sep-16 19:00N 28°30' W 016°10'3 3.2
2018-Sep-16 18:13N 28°32' W 016°08'0 0.0
2018-Sep-16 17:59N 28°32' W 016°08'0 0.0
2018-Sep-16 17:22N 28°32' W 016°08'0 0.1
2018-Sep-16 17:03N 28°32' W 016°08'0 0.1
2018-Sep-16 17:01N 28°32' W 016°08'0 0.1
2018-Sep-16 16:30N 28°32' W 016°08'0 0.2
2018-Sep-16 16:03N 28°32' W 016°08'0 1.1
2018-Sep-16 16:00N 28°32' W 016°08'1 2.8
2018-Sep-16 15:31N 28°32' W 016°06'1 2.5
2018-Sep-16 15:04N 28°33' W 016°06'0 4.7
2018-Sep-16 15:00N 28°33' W 016°06'5 4.7
2018-Sep-16 14:00N 28°38' W 016°04'3 5.1
2018-Sep-16 13:31N 28°40' W 016°04'  
2018-Sep-12 15:28N 35°52' W 015°45'5 5.4
2018-Sep-12 14:32N 35°57' W 015°45'64 4.8
2018-Sep-12 01:07N 36°32' W 014°39'1 6.3
2018-Sep-12 00:58N 36°33' W 014°38'46 7.0
2018-Sep-11 18:27N 36°56' W 013°49'20 7.1
2018-Sep-11 15:41N 37°06' W 013°27'15 7.8
2018-Sep-11 13:43N 37°14' W 013°11'2 8.6
2018-Sep-11 13:27N 37°15' W 013°09'  

Dump ship's entire track history